createdAt,value
2022-08-19T00:00:13.622Z,0.00
2022-08-19T00:01:13.623Z,0.00
2022-08-19T00:02:13.592Z,0.00
2022-08-19T00:03:16.622Z,0.00
2022-08-19T00:04:16.633Z,0.00
2022-08-19T00:05:13.583Z,0.00
2022-08-19T00:06:13.554Z,0.00
2022-08-19T00:07:13.532Z,0.00
2022-08-19T00:08:13.515Z,0.00
2022-08-19T00:09:13.515Z,0.00
2022-08-19T00:10:13.515Z,0.00
2022-08-19T00:11:18.680Z,0.00
2022-08-19T00:12:14.474Z,0.00
2022-08-19T00:13:13.449Z,0.00
2022-08-19T00:14:13.438Z,0.00
2022-08-19T00:15:13.463Z,0.00
2022-08-19T00:16:13.408Z,0.00
2022-08-19T00:17:13.419Z,0.00
2022-08-19T00:18:13.380Z,0.00
2022-08-19T00:19:13.370Z,0.00
2022-08-19T00:20:13.357Z,0.00
2022-08-19T00:21:13.401Z,0.00
2022-08-19T00:22:13.333Z,0.00
2022-08-19T00:23:16.312Z,0.00
2022-08-19T00:24:16.315Z,0.00
2022-08-19T00:25:13.299Z,0.00
2022-08-19T00:26:13.273Z,0.00
2022-08-19T00:27:26.533Z,0.00
2022-08-19T00:28:14.254Z,0.00
2022-08-19T00:29:13.249Z,0.00
2022-08-19T00:30:13.215Z,0.00
2022-08-19T00:31:13.206Z,0.00
2022-08-19T00:32:13.233Z,0.00
2022-08-19T00:33:13.206Z,0.00
2022-08-19T00:34:13.197Z,0.00
2022-08-19T00:35:13.150Z,0.00
2022-08-19T00:36:13.138Z,0.00
2022-08-19T00:37:13.118Z,0.00
2022-08-19T00:38:13.107Z,0.00
2022-08-19T00:39:13.169Z,0.00
2022-08-19T00:40:13.110Z,0.00
2022-08-19T00:41:13.061Z,0.00
2022-08-19T00:42:15.679Z,0.00
2022-08-19T00:43:16.039Z,0.00
2022-08-19T00:44:16.092Z,0.00
2022-08-19T00:45:13.010Z,0.00
2022-08-19T00:46:12.994Z,0.00
2022-08-19T00:47:14.284Z,0.00
2022-08-19T00:48:14.936Z,0.00
2022-08-19T00:49:12.968Z,0.00
2022-08-19T00:50:12.935Z,0.00
2022-08-19T00:51:12.925Z,0.00
2022-08-19T00:52:12.918Z,0.00
2022-08-19T00:53:12.925Z,0.00
2022-08-19T00:54:12.882Z,0.00
2022-08-19T00:55:12.874Z,0.00
2022-08-19T00:56:12.874Z,0.00
2022-08-19T00:57:12.877Z,0.00
2022-08-19T00:58:12.896Z,0.00
2022-08-19T00:59:12.834Z,0.00
2022-08-19T01:00:12.799Z,0.00
2022-08-19T01:01:12.826Z,0.00
2022-08-19T01:02:12.777Z,0.00
2022-08-19T01:03:15.791Z,0.00
2022-08-19T01:04:15.769Z,0.00
2022-08-19T01:05:12.737Z,0.00
2022-08-19T01:06:12.721Z,0.00
2022-08-19T01:07:15.206Z,0.00
2022-08-19T01:08:13.727Z,0.00
2022-08-19T01:09:12.683Z,0.00
2022-08-19T01:10:12.678Z,0.00
2022-08-19T01:11:12.688Z,0.00
2022-08-19T01:12:12.643Z,0.00
2022-08-19T01:13:12.653Z,0.00
2022-08-19T01:14:12.614Z,0.00
2022-08-19T01:15:12.616Z,0.00
2022-08-19T01:16:12.585Z,0.00
2022-08-19T01:17:12.576Z,0.00
2022-08-19T01:18:12.575Z,0.00
2022-08-19T01:19:12.570Z,0.00
2022-08-19T01:20:12.526Z,0.00
2022-08-19T01:21:12.518Z,0.00
2022-08-19T01:22:14.195Z,0.00
2022-08-19T01:23:15.508Z,0.00
2022-08-19T01:24:15.524Z,0.00
2022-08-19T01:25:14.843Z,0.00
2022-08-19T01:26:12.442Z,0.00
2022-08-19T01:27:12.460Z,0.00
2022-08-19T01:28:12.419Z,0.00
2022-08-19T01:29:12.438Z,0.00
2022-08-19T01:30:12.390Z,0.00
2022-08-19T01:31:12.380Z,0.00
2022-08-19T01:32:33.173Z,0.00
2022-08-19T01:33:13.392Z,0.00
2022-08-19T01:34:12.333Z,0.00
2022-08-19T01:35:12.343Z,0.00
2022-08-19T01:36:12.314Z,0.00
2022-08-19T01:37:12.287Z,0.00
2022-08-19T01:38:12.469Z,0.00
2022-08-19T01:39:12.280Z,0.00
2022-08-19T01:40:12.326Z,0.00
2022-08-19T01:41:12.225Z,0.00
2022-08-19T01:42:12.231Z,0.00
2022-08-19T01:43:15.198Z,0.00
2022-08-19T01:44:18.794Z,0.00
2022-08-19T01:45:12.167Z,0.00
2022-08-19T01:46:12.318Z,0.00
2022-08-19T01:47:12.175Z,0.00
2022-08-19T01:48:12.142Z,0.00
2022-08-19T01:49:12.118Z,0.00
2022-08-19T01:50:12.100Z,0.00
2022-08-19T01:51:12.095Z,0.00
2022-08-19T01:52:12.101Z,0.00
2022-08-19T01:53:12.103Z,0.00
2022-08-19T01:54:12.052Z,0.00
2022-08-19T01:55:12.053Z,0.00
2022-08-19T01:56:12.017Z,0.00
2022-08-19T01:57:12.002Z,0.00
2022-08-19T01:58:12.004Z,0.00
2022-08-19T01:59:12.033Z,0.00
2022-08-19T02:00:11.954Z,0.00
2022-08-19T02:01:11.988Z,0.00
2022-08-19T02:02:11.926Z,0.00
2022-08-19T02:03:14.946Z,0.00
2022-08-19T02:04:14.956Z,0.00
2022-08-19T02:05:11.884Z,0.00
2022-08-19T02:06:11.887Z,0.00
2022-08-19T02:07:11.854Z,0.00
2022-08-19T02:08:11.843Z,0.00
2022-08-19T02:09:11.836Z,0.00
2022-08-19T02:10:12.597Z,0.00
2022-08-19T02:11:11.798Z,0.00
2022-08-19T02:12:11.788Z,0.00
2022-08-19T02:13:11.770Z,0.00
2022-08-19T02:14:11.800Z,0.00
2022-08-19T02:15:11.752Z,0.00
2022-08-19T02:16:11.730Z,0.00
2022-08-19T02:17:11.715Z,0.00
2022-08-19T02:18:11.708Z,0.00
2022-08-19T02:19:11.695Z,0.00
2022-08-19T02:20:11.723Z,0.00
2022-08-19T02:21:11.653Z,0.00
2022-08-19T02:22:11.653Z,0.00
2022-08-19T02:23:16.157Z,0.00
2022-08-19T02:24:14.634Z,0.00
2022-08-19T02:25:11.606Z,0.00
2022-08-19T02:26:11.646Z,0.00
2022-08-19T02:27:11.577Z,0.00
2022-08-19T02:28:14.535Z,0.00
2022-08-19T02:29:12.547Z,0.00
2022-08-19T02:30:14.141Z,0.00
2022-08-19T02:31:11.527Z,0.00
2022-08-19T02:32:11.537Z,0.00
2022-08-19T02:33:11.497Z,0.00
2022-08-19T02:34:11.494Z,0.00
2022-08-19T02:35:12.183Z,0.00
2022-08-19T02:36:11.499Z,0.00
2022-08-19T02:37:11.430Z,0.00
2022-08-19T02:38:11.422Z,0.00
2022-08-19T02:39:11.434Z,0.00
2022-08-19T02:40:12.454Z,0.00
2022-08-19T02:41:11.400Z,0.00
2022-08-19T02:42:11.389Z,0.00
2022-08-19T02:43:14.350Z,0.00
2022-08-19T02:44:30.456Z,0.00
2022-08-19T02:45:12.314Z,0.00
2022-08-19T02:46:11.343Z,0.00
2022-08-19T02:47:11.293Z,0.00
2022-08-19T02:48:14.946Z,0.00
2022-08-19T02:49:12.327Z,0.00
2022-08-19T02:50:11.247Z,0.00
2022-08-19T02:51:11.238Z,0.00
2022-08-19T02:52:11.248Z,0.00
2022-08-19T02:53:11.215Z,0.00
2022-08-19T02:54:11.196Z,0.00
2022-08-19T02:55:11.204Z,0.00
2022-08-19T02:56:11.167Z,0.00
2022-08-19T02:57:11.190Z,0.00
2022-08-19T02:58:11.137Z,0.00
2022-08-19T02:59:11.536Z,0.00
2022-08-19T03:00:11.106Z,0.00
2022-08-19T03:01:11.107Z,0.00
2022-08-19T03:02:11.078Z,0.00
2022-08-19T03:03:14.098Z,0.00
2022-08-19T03:04:14.072Z,0.00
2022-08-19T03:05:11.030Z,0.00
2022-08-19T03:06:11.022Z,0.00
2022-08-19T03:07:11.466Z,0.00
2022-08-19T03:08:10.992Z,0.00
2022-08-19T03:09:10.981Z,0.00
2022-08-19T03:10:10.962Z,0.00
2022-08-19T03:11:10.943Z,0.00
2022-08-19T03:12:10.985Z,0.00
2022-08-19T03:13:10.916Z,0.00
2022-08-19T03:14:10.922Z,0.00
2022-08-19T03:15:10.886Z,0.00
2022-08-19T03:16:10.879Z,0.00
2022-08-19T03:17:10.871Z,0.00
2022-08-19T03:18:10.899Z,0.00
2022-08-19T03:19:10.839Z,0.00
2022-08-19T03:20:10.830Z,0.00
2022-08-19T03:21:12.366Z,0.00
2022-08-19T03:22:10.800Z,0.00
2022-08-19T03:23:13.841Z,0.00
2022-08-19T03:24:13.781Z,0.00
2022-08-19T03:25:10.750Z,0.00
2022-08-19T03:26:15.912Z,0.00
2022-08-19T03:27:11.721Z,0.00
2022-08-19T03:28:10.718Z,0.00
2022-08-19T03:29:10.732Z,0.00
2022-08-19T03:30:11.665Z,0.00
2022-08-19T03:31:43.806Z,0.00
2022-08-19T03:32:27.913Z,0.00
2022-08-19T03:33:11.643Z,0.00
2022-08-19T03:34:11.684Z,0.00
2022-08-19T03:35:10.613Z,0.00
2022-08-19T03:36:10.595Z,0.00
2022-08-19T03:37:10.586Z,0.00
2022-08-19T03:38:10.574Z,0.00
2022-08-19T03:39:10.557Z,0.00
2022-08-19T03:40:10.635Z,0.00
2022-08-19T03:41:11.525Z,0.00
2022-08-19T03:42:45.354Z,0.00
2022-08-19T03:43:14.497Z,0.00
2022-08-19T03:44:18.032Z,0.00
2022-08-19T03:45:11.469Z,4.00
2022-08-19T03:46:10.459Z,4.00
2022-08-19T03:47:10.440Z,4.00
2022-08-19T03:48:10.429Z,0.00
2022-08-19T03:49:10.411Z,0.00
2022-08-19T03:50:10.432Z,4.00
2022-08-19T03:51:10.410Z,4.00
2022-08-19T03:52:10.391Z,4.00
2022-08-19T03:53:10.352Z,4.00
2022-08-19T03:54:10.342Z,4.00
2022-08-19T03:55:10.505Z,8.00
2022-08-19T03:56:10.313Z,8.00
2022-08-19T03:57:10.292Z,8.00
2022-08-19T03:58:10.294Z,8.00
2022-08-19T03:59:10.286Z,12.00
2022-08-19T04:00:13.704Z,12.00
2022-08-19T04:01:10.461Z,12.00
2022-08-19T04:02:10.346Z,12.00
2022-08-19T04:03:13.242Z,16.00
2022-08-19T04:04:13.218Z,12.00
2022-08-19T04:05:10.186Z,16.00
2022-08-19T04:06:10.174Z,16.00
2022-08-19T04:07:10.231Z,20.00
2022-08-19T04:08:13.792Z,24.00
2022-08-19T04:09:10.130Z,24.00
2022-08-19T04:10:10.666Z,28.00
2022-08-19T04:11:10.100Z,28.00
2022-08-19T04:12:10.089Z,28.00
2022-08-19T04:13:10.113Z,36.00
2022-08-19T04:14:10.071Z,36.00
2022-08-19T04:15:10.069Z,40.00
2022-08-19T04:16:10.031Z,44.00
2022-08-19T04:17:10.013Z,44.00
2022-08-19T04:18:10.015Z,44.00
2022-08-19T04:19:09.985Z,48.00
2022-08-19T04:20:10.005Z,52.00
2022-08-19T04:21:09.954Z,52.00
2022-08-19T04:22:09.981Z,60.00
2022-08-19T04:23:12.925Z,60.00
2022-08-19T04:24:12.934Z,64.00
2022-08-19T04:25:09.918Z,72.00
2022-08-19T04:26:09.890Z,76.00
2022-08-19T04:27:09.906Z,80.00
2022-08-19T04:28:09.886Z,80.00
2022-08-19T04:29:12.554Z,84.00
2022-08-19T04:30:09.856Z,88.00
2022-08-19T04:31:09.815Z,92.00
2022-08-19T04:32:10.049Z,88.00
2022-08-19T04:33:09.790Z,92.00
2022-08-19T04:34:09.779Z,100.00
2022-08-19T04:35:18.483Z,104.00
2022-08-19T04:36:10.783Z,112.00
2022-08-19T04:37:09.731Z,116.00
2022-08-19T04:38:09.721Z,120.00
2022-08-19T04:39:09.709Z,124.00
2022-08-19T04:40:09.770Z,124.00
2022-08-19T04:41:09.702Z,128.00
2022-08-19T04:42:09.661Z,132.00
2022-08-19T04:43:12.643Z,136.00
2022-08-19T04:44:12.644Z,144.00
2022-08-19T04:45:12.510Z,144.00
2022-08-19T04:46:09.684Z,144.00
2022-08-19T04:47:11.079Z,148.00
2022-08-19T04:48:27.426Z,156.00
2022-08-19T04:49:13.242Z,168.00
2022-08-19T04:50:10.321Z,176.00
2022-08-19T04:51:09.556Z,188.00
2022-08-19T04:52:09.652Z,208.00
2022-08-19T04:53:09.506Z,224.00
2022-08-19T04:54:09.496Z,240.00
2022-08-19T04:55:09.489Z,260.00
2022-08-19T04:56:09.510Z,268.00
2022-08-19T04:57:09.622Z,280.00
2022-08-19T04:58:09.439Z,284.00
2022-08-19T04:59:09.420Z,292.00
2022-08-19T05:00:09.427Z,292.00
2022-08-19T05:01:09.486Z,284.00
2022-08-19T05:02:09.420Z,284.00
2022-08-19T05:03:12.412Z,284.00
2022-08-19T05:04:12.370Z,284.00
2022-08-19T05:05:09.348Z,280.00
2022-08-19T05:06:09.323Z,288.00
2022-08-19T05:07:09.319Z,288.00
2022-08-19T05:08:09.321Z,292.00
2022-08-19T05:09:09.313Z,296.00
2022-08-19T05:10:09.272Z,304.00
2022-08-19T05:11:09.258Z,300.00
2022-08-19T05:12:09.255Z,300.00
2022-08-19T05:13:09.224Z,296.00
2022-08-19T05:14:09.237Z,296.00
2022-08-19T05:15:09.195Z,292.00
2022-08-19T05:16:09.198Z,288.00
2022-08-19T05:17:26.453Z,284.00
2022-08-19T05:18:10.156Z,280.00
2022-08-19T05:19:09.164Z,280.00
2022-08-19T05:20:09.130Z,284.00
2022-08-19T05:21:09.109Z,284.00
2022-08-19T05:22:09.090Z,284.00
2022-08-19T05:23:13.331Z,292.00
2022-08-19T05:24:13.146Z,292.00
2022-08-19T05:25:13.400Z,292.00
2022-08-19T05:26:09.045Z,292.00
2022-08-19T05:27:09.022Z,300.00
2022-08-19T05:28:09.012Z,304.00
2022-08-19T05:29:08.995Z,304.00
2022-08-19T05:30:09.017Z,304.00
2022-08-19T05:31:08.993Z,308.00
2022-08-19T05:32:08.963Z,316.00
2022-08-19T05:33:08.962Z,332.00
2022-08-19T05:34:18.238Z,348.00
2022-08-19T05:35:09.985Z,372.00
2022-08-19T05:36:08.895Z,432.00
2022-08-19T05:37:08.897Z,464.00
2022-08-19T05:38:08.875Z,496.00
2022-08-19T05:39:08.879Z,500.00
2022-08-19T05:40:08.967Z,508.00
2022-08-19T05:41:08.826Z,544.00
2022-08-19T05:42:08.816Z,580.00
2022-08-19T05:43:11.801Z,652.00
2022-08-19T05:44:11.826Z,700.00
2022-08-19T05:45:08.821Z,772.00
2022-08-19T05:46:08.756Z,896.00
2022-08-19T05:47:08.740Z,916.00
2022-08-19T05:48:08.735Z,928.00
2022-08-19T05:49:08.801Z,1004.00
2022-08-19T05:50:08.701Z,1372.00
2022-08-19T05:51:08.713Z,1520.00
2022-08-19T05:52:08.681Z,1652.00
2022-08-19T05:53:08.664Z,1876.00
2022-08-19T05:54:08.643Z,1668.00
2022-08-19T05:55:08.643Z,1304.00
2022-08-19T05:56:08.645Z,1080.00
2022-08-19T05:57:08.633Z,952.00
2022-08-19T05:58:08.753Z,1012.00
2022-08-19T05:59:08.572Z,1204.00
2022-08-19T06:00:08.567Z,1696.00
2022-08-19T06:01:08.555Z,2040.00
2022-08-19T06:02:08.591Z,2476.00
2022-08-19T06:03:12.724Z,2832.00
2022-08-19T06:04:11.517Z,3048.00
2022-08-19T06:05:08.487Z,3084.00
2022-08-19T06:06:08.467Z,3068.00
2022-08-19T06:07:11.940Z,3196.00
2022-08-19T06:08:08.519Z,3264.00
2022-08-19T06:09:08.431Z,3176.00
2022-08-19T06:10:08.419Z,3992.00
2022-08-19T06:11:08.400Z,3404.00
2022-08-19T06:12:08.389Z,3948.00
2022-08-19T06:13:08.378Z,4836.00
2022-08-19T06:14:08.408Z,4920.00
2022-08-19T06:15:09.351Z,5292.00
2022-08-19T06:16:08.331Z,9860.00
2022-08-19T06:17:08.327Z,6724.00
2022-08-19T06:18:08.302Z,5692.00
2022-08-19T06:19:08.293Z,8076.00
2022-08-19T06:20:08.323Z,5464.00
2022-08-19T06:21:08.265Z,5416.00
2022-08-19T06:22:08.357Z,6312.00
2022-08-19T06:23:11.235Z,6024.00
2022-08-19T06:24:12.242Z,8136.00
2022-08-19T06:25:08.254Z,6320.00
2022-08-19T06:26:08.198Z,5284.00
2022-08-19T06:27:08.203Z,4564.00
2022-08-19T06:28:15.797Z,4788.00
2022-08-19T06:29:09.158Z,5088.00
2022-08-19T06:30:08.208Z,4724.00
2022-08-19T06:31:08.141Z,4464.00
2022-08-19T06:32:08.121Z,4128.00
2022-08-19T06:33:08.099Z,3892.00
2022-08-19T06:34:08.091Z,3924.00
2022-08-19T06:35:08.082Z,3888.00
2022-08-19T06:36:08.089Z,3848.00
2022-08-19T06:37:08.053Z,3620.00
2022-08-19T06:38:08.052Z,3556.00
2022-08-19T06:39:08.024Z,3420.00
2022-08-19T06:40:08.060Z,3104.00
2022-08-19T06:41:08.226Z,3008.00
2022-08-19T06:42:08.065Z,3084.00
2022-08-19T06:43:10.975Z,3168.00
2022-08-19T06:44:13.190Z,3152.00
2022-08-19T06:45:09.327Z,2932.00
2022-08-19T06:46:07.927Z,2700.00
2022-08-19T06:47:14.278Z,2548.00
2022-08-19T06:48:08.956Z,2528.00
2022-08-19T06:49:07.887Z,2440.00
2022-08-19T06:50:07.876Z,2408.00
2022-08-19T06:51:08.761Z,2348.00
2022-08-19T06:52:07.847Z,2272.00
2022-08-19T06:53:07.829Z,2072.00
2022-08-19T06:54:07.868Z,1968.00
2022-08-19T06:55:08.833Z,1904.00
2022-08-19T06:56:07.789Z,1856.00
2022-08-19T06:57:07.779Z,1764.00
2022-08-19T06:58:07.772Z,1696.00
2022-08-19T06:59:07.780Z,1640.00
2022-08-19T07:00:12.235Z,1628.00
2022-08-19T07:01:09.293Z,1652.00
2022-08-19T07:02:07.764Z,1700.00
2022-08-19T07:03:13.291Z,1728.00
2022-08-19T07:04:12.168Z,1728.00
2022-08-19T07:05:07.664Z,1704.00
2022-08-19T07:06:09.861Z,1664.00
2022-08-19T07:07:20.211Z,1624.00
2022-08-19T07:08:08.633Z,1564.00
2022-08-19T07:09:07.675Z,1528.00
2022-08-19T07:10:07.862Z,1496.00
2022-08-19T07:11:09.235Z,1492.00
2022-08-19T07:12:07.572Z,1576.00
2022-08-19T07:13:07.555Z,1676.00
2022-08-19T07:14:07.543Z,1748.00
2022-08-19T07:15:08.686Z,1772.00
2022-08-19T07:16:07.506Z,1780.00
2022-08-19T07:17:07.518Z,1796.00
2022-08-19T07:18:07.479Z,1796.00
2022-08-19T07:19:13.010Z,1820.00
2022-08-19T07:20:09.675Z,1868.00
2022-08-19T07:21:09.461Z,1908.00
2022-08-19T07:22:07.428Z,1980.00
2022-08-19T07:23:16.001Z,2056.00
2022-08-19T07:24:11.417Z,2072.00
2022-08-19T07:25:07.383Z,2116.00
2022-08-19T07:26:07.364Z,2200.00
2022-08-19T07:27:10.360Z,2256.00
2022-08-19T07:28:08.343Z,2244.00
2022-08-19T07:29:08.324Z,2236.00
2022-08-19T07:30:07.337Z,2264.00
2022-08-19T07:31:07.311Z,2332.00
2022-08-19T07:32:07.288Z,2388.00
2022-08-19T07:33:07.268Z,2372.00
2022-08-19T07:34:07.255Z,2376.00
2022-08-19T07:35:07.287Z,2396.00
2022-08-19T07:36:07.246Z,2404.00
2022-08-19T07:37:07.217Z,2432.00
2022-08-19T07:38:07.254Z,2548.00
2022-08-19T07:39:07.190Z,2752.00
2022-08-19T07:40:07.308Z,2972.00
2022-08-19T07:41:07.166Z,3144.00
2022-08-19T07:42:07.170Z,3336.00
2022-08-19T07:43:13.614Z,3500.00
2022-08-19T07:44:10.152Z,3556.00
2022-08-19T07:45:07.111Z,3684.00
2022-08-19T07:46:07.089Z,3836.00
2022-08-19T07:47:07.072Z,3964.00
2022-08-19T07:48:08.093Z,4196.00
2022-08-19T07:49:07.049Z,4476.00
2022-08-19T07:50:07.794Z,4640.00
2022-08-19T07:51:07.023Z,4744.00
2022-08-19T07:52:07.015Z,4904.00
2022-08-19T07:53:07.022Z,5088.00
2022-08-19T07:54:06.983Z,5168.00
2022-08-19T07:55:06.975Z,5496.00
2022-08-19T07:56:07.956Z,5788.00
2022-08-19T07:57:06.938Z,6080.00
2022-08-19T07:58:07.455Z,6292.00
2022-08-19T07:59:06.917Z,6360.00
2022-08-19T08:00:06.900Z,6440.00
2022-08-19T08:01:06.911Z,6524.00
2022-08-19T08:02:06.947Z,6424.00
2022-08-19T08:03:09.977Z,5996.00
2022-08-19T08:04:09.859Z,6108.00
2022-08-19T08:05:06.857Z,6548.00
2022-08-19T08:06:06.821Z,7132.00
2022-08-19T08:07:06.810Z,6244.00
2022-08-19T08:08:06.800Z,6316.00
2022-08-19T08:09:07.051Z,6704.00
2022-08-19T08:10:07.301Z,7056.00
2022-08-19T08:11:08.322Z,7356.00
2022-08-19T08:12:32.928Z,6616.00
2022-08-19T08:13:10.150Z,6728.00
2022-08-19T08:14:06.884Z,7436.00
2022-08-19T08:15:08.337Z,8496.00
2022-08-19T08:16:06.686Z,9144.00
2022-08-19T08:17:10.912Z,9056.00
2022-08-19T08:18:06.656Z,9136.00
2022-08-19T08:19:14.722Z,8088.00
2022-08-19T08:20:07.657Z,7968.00
2022-08-19T08:21:06.647Z,8024.00
2022-08-19T08:22:06.607Z,8152.00
2022-08-19T08:23:09.641Z,8160.00
2022-08-19T08:24:09.618Z,8196.00
2022-08-19T08:25:06.750Z,8324.00
2022-08-19T08:26:06.556Z,9056.00
2022-08-19T08:27:11.080Z,8692.00
2022-08-19T08:28:07.529Z,8552.00
2022-08-19T08:29:12.211Z,8080.00
2022-08-19T08:30:07.551Z,7184.00
2022-08-19T08:31:09.466Z,6776.00
2022-08-19T08:32:14.900Z,6248.00
2022-08-19T08:33:07.515Z,5804.00
2022-08-19T08:34:06.460Z,5656.00
2022-08-19T08:35:06.436Z,5796.00
2022-08-19T08:36:06.444Z,5928.00
2022-08-19T08:37:06.434Z,5844.00
2022-08-19T08:38:06.395Z,5768.00
2022-08-19T08:39:06.380Z,5768.00
2022-08-19T08:40:08.076Z,5880.00
2022-08-19T08:41:06.401Z,6112.00
2022-08-19T08:42:10.215Z,6316.00
2022-08-19T08:43:11.203Z,6600.00
2022-08-19T08:44:09.318Z,6420.00
2022-08-19T08:45:07.298Z,6448.00
2022-08-19T08:46:06.309Z,6420.00
2022-08-19T08:47:07.900Z,6416.00
2022-08-19T08:48:06.262Z,6404.00
2022-08-19T08:49:07.242Z,6400.00
2022-08-19T08:50:06.262Z,6400.00
2022-08-19T08:51:06.243Z,6420.00
2022-08-19T08:52:06.208Z,6456.00
2022-08-19T08:53:06.193Z,6484.00
2022-08-19T08:54:06.182Z,6488.00
2022-08-19T08:55:10.247Z,6476.00
2022-08-19T08:56:06.213Z,6464.00
2022-08-19T08:57:06.149Z,6476.00
2022-08-19T08:58:06.124Z,6496.00
2022-08-19T08:59:06.115Z,6548.00
2022-08-19T09:00:06.111Z,6564.00
2022-08-19T09:01:07.172Z,6612.00
2022-08-19T09:02:06.095Z,6652.00
2022-08-19T09:03:09.056Z,6712.00
2022-08-19T09:04:09.067Z,6648.00
2022-08-19T09:05:06.030Z,6620.00
2022-08-19T09:06:06.008Z,6588.00
2022-08-19T09:07:17.930Z,6496.00
2022-08-19T09:08:07.139Z,6392.00
2022-08-19T09:09:11.761Z,6452.00
2022-08-19T09:10:06.997Z,6576.00
2022-08-19T09:11:05.940Z,6624.00
2022-08-19T09:12:05.938Z,6740.00
2022-08-19T09:13:09.180Z,7160.00
2022-08-19T09:14:05.943Z,7276.00
2022-08-19T09:15:05.894Z,7360.00
2022-08-19T09:16:05.885Z,7552.00
2022-08-19T09:17:05.879Z,7856.00
2022-08-19T09:18:07.159Z,7304.00
2022-08-19T09:19:06.459Z,6816.00
2022-08-19T09:20:05.895Z,6980.00
2022-08-19T09:21:05.816Z,7128.00
2022-08-19T09:22:05.798Z,6988.00
2022-08-19T09:23:08.804Z,6800.00
2022-08-19T09:24:08.794Z,6920.00
2022-08-19T09:25:05.767Z,7332.00
2022-08-19T09:26:05.789Z,7000.00
2022-08-19T09:27:16.006Z,7304.00
2022-08-19T09:28:15.185Z,7312.00
2022-08-19T09:29:06.725Z,7412.00
2022-08-19T09:30:05.695Z,7588.00
2022-08-19T09:31:05.681Z,7504.00
2022-08-19T09:32:05.721Z,7536.00
2022-08-19T09:33:06.662Z,7008.00
2022-08-19T09:34:05.843Z,6868.00
2022-08-19T09:35:08.713Z,7304.00
2022-08-19T09:36:08.522Z,7112.00
2022-08-19T09:37:05.602Z,7328.00
2022-08-19T09:38:05.613Z,7180.00
2022-08-19T09:39:05.574Z,7188.00
2022-08-19T09:40:06.585Z,7008.00
2022-08-19T09:41:05.544Z,6856.00
2022-08-19T09:42:05.575Z,6876.00
2022-08-19T09:43:10.007Z,6984.00
2022-08-19T09:44:08.521Z,5832.00
2022-08-19T09:45:05.503Z,5748.00
2022-08-19T09:46:06.478Z,5564.00
2022-08-19T09:47:05.469Z,6120.00
2022-08-19T09:48:05.478Z,5740.00
2022-08-19T09:49:06.547Z,5660.00
2022-08-19T09:50:05.421Z,5704.00
2022-08-19T09:51:05.412Z,5620.00
2022-08-19T09:52:05.396Z,5692.00
2022-08-19T09:53:05.381Z,5764.00
2022-08-19T09:54:05.402Z,5892.00
2022-08-19T09:55:07.118Z,6428.00
2022-08-19T09:56:05.332Z,6092.00
2022-08-19T09:57:05.330Z,6776.00
2022-08-19T09:58:05.312Z,5924.00
2022-08-19T09:59:05.324Z,5664.00
2022-08-19T10:00:05.293Z,5700.00
2022-08-19T10:01:05.329Z,5712.00
2022-08-19T10:02:11.197Z,6152.00
2022-08-19T10:03:09.246Z,5924.00
2022-08-19T10:04:20.126Z,5976.00
2022-08-19T10:05:06.221Z,5764.00
2022-08-19T10:06:05.236Z,5580.00
2022-08-19T10:07:06.201Z,5504.00
2022-08-19T10:08:05.214Z,6460.00
2022-08-19T10:09:06.168Z,6296.00
2022-08-19T10:10:05.178Z,6248.00
2022-08-19T10:11:28.210Z,6168.00
2022-08-19T10:12:06.345Z,6020.00
2022-08-19T10:13:06.139Z,5776.00
2022-08-19T10:14:05.121Z,5600.00
2022-08-19T10:15:05.121Z,5468.00
2022-08-19T10:16:05.072Z,5388.00
2022-08-19T10:17:19.320Z,5320.00
2022-08-19T10:18:06.051Z,5316.00
2022-08-19T10:19:05.948Z,5276.00
2022-08-19T10:20:05.053Z,5232.00
2022-08-19T10:21:05.003Z,5116.00
2022-08-19T10:22:05.154Z,5044.00
2022-08-19T10:23:08.975Z,5112.00
2022-08-19T10:24:09.470Z,5184.00
2022-08-19T10:25:04.954Z,5172.00
2022-08-19T10:26:04.978Z,5080.00
2022-08-19T10:27:04.938Z,4992.00
2022-08-19T10:28:04.960Z,4868.00
2022-08-19T10:29:05.930Z,4832.00
2022-08-19T10:30:04.904Z,4896.00
2022-08-19T10:31:05.883Z,4856.00
2022-08-19T10:32:04.872Z,4836.00
2022-08-19T10:33:08.435Z,4876.00
2022-08-19T10:34:05.892Z,4864.00
2022-08-19T10:35:06.036Z,4836.00
2022-08-19T10:36:04.844Z,4816.00
2022-08-19T10:37:04.813Z,4820.00
2022-08-19T10:38:05.951Z,4828.00
2022-08-19T10:39:04.774Z,4804.00
2022-08-19T10:40:04.822Z,4832.00
2022-08-19T10:41:04.770Z,4756.00
2022-08-19T10:42:04.747Z,4832.00
2022-08-19T10:43:07.749Z,5004.00
2022-08-19T10:44:07.778Z,5088.00
2022-08-19T10:45:04.972Z,4880.00
2022-08-19T10:46:04.740Z,4800.00
2022-08-19T10:47:17.942Z,4808.00
2022-08-19T10:48:05.721Z,4384.00
2022-08-19T10:49:04.633Z,4408.00
2022-08-19T10:50:04.814Z,4328.00
2022-08-19T10:51:04.642Z,4380.00
2022-08-19T10:52:04.614Z,4544.00
2022-08-19T10:53:08.083Z,4920.00
2022-08-19T10:54:06.812Z,4860.00
2022-08-19T10:55:08.485Z,5192.00
2022-08-19T10:56:04.579Z,4652.00
2022-08-19T10:57:04.517Z,4796.00
2022-08-19T10:58:04.707Z,4612.00
2022-08-19T10:59:04.518Z,4924.00
2022-08-19T11:00:04.499Z,5112.00
2022-08-19T11:01:04.572Z,5196.00
2022-08-19T11:02:04.459Z,5304.00
2022-08-19T11:03:07.438Z,5320.00
2022-08-19T11:04:07.459Z,5296.00
2022-08-19T11:05:12.342Z,5292.00
2022-08-19T11:06:05.443Z,5260.00
2022-08-19T11:07:04.391Z,5216.00
2022-08-19T11:08:04.402Z,5184.00
2022-08-19T11:09:05.363Z,5172.00
2022-08-19T11:10:04.412Z,5128.00
2022-08-19T11:11:04.347Z,5104.00
2022-08-19T11:12:05.019Z,5068.00
2022-08-19T11:13:04.314Z,5040.00
2022-08-19T11:14:04.305Z,5000.00
2022-08-19T11:15:04.284Z,4968.00
2022-08-19T11:16:07.647Z,4928.00
2022-08-19T11:17:04.259Z,4908.00
2022-08-19T11:18:04.246Z,4872.00
2022-08-19T11:19:04.242Z,4836.00
2022-08-19T11:20:04.269Z,4808.00
2022-08-19T11:21:04.212Z,4800.00
2022-08-19T11:22:04.188Z,4808.00
2022-08-19T11:23:07.189Z,4772.00
2022-08-19T11:24:07.169Z,4744.00
2022-08-19T11:25:04.151Z,4744.00
2022-08-19T11:26:04.290Z,4764.00
2022-08-19T11:27:04.121Z,4776.00
2022-08-19T11:28:04.111Z,4744.00
2022-08-19T11:29:04.094Z,4728.00
2022-08-19T11:30:04.082Z,4708.00
2022-08-19T11:31:04.093Z,4688.00
2022-08-19T11:32:04.099Z,4680.00
2022-08-19T11:33:04.075Z,4668.00
2022-08-19T11:34:04.042Z,4684.00
2022-08-19T11:35:04.014Z,4692.00
2022-08-19T11:36:04.006Z,4684.00
2022-08-19T11:37:03.994Z,4680.00
2022-08-19T11:38:07.174Z,4684.00
2022-08-19T11:39:04.965Z,4676.00
2022-08-19T11:40:04.061Z,4656.00
2022-08-19T11:41:03.950Z,4632.00
2022-08-19T11:42:03.988Z,4628.00
2022-08-19T11:43:06.909Z,4628.00
2022-08-19T11:44:06.921Z,4620.00
2022-08-19T11:45:03.886Z,4608.00
2022-08-19T11:46:03.870Z,4624.00
2022-08-19T11:47:09.098Z,4616.00
2022-08-19T11:48:04.875Z,4588.00
2022-08-19T11:49:03.833Z,4580.00
2022-08-19T11:50:03.822Z,4616.00
2022-08-19T11:51:03.836Z,4608.00
2022-08-19T11:52:03.833Z,4592.00
2022-08-19T11:53:03.812Z,4540.00
2022-08-19T11:54:03.802Z,4556.00
2022-08-19T11:55:03.745Z,4532.00
2022-08-19T11:56:03.735Z,4576.00
2022-08-19T11:57:03.725Z,4580.00
2022-08-19T11:58:03.718Z,4564.00
2022-08-19T11:59:03.725Z,4536.00
2022-08-19T12:00:03.688Z,4512.00
2022-08-19T12:01:04.653Z,4504.00
2022-08-19T12:02:03.689Z,4508.00
2022-08-19T12:03:06.680Z,4520.00
2022-08-19T12:04:06.701Z,4516.00
2022-08-19T12:05:03.629Z,4512.00
2022-08-19T12:06:05.112Z,4508.00
2022-08-19T12:07:03.600Z,4516.00
2022-08-19T12:08:03.602Z,4508.00
2022-08-19T12:09:03.573Z,4492.00
2022-08-19T12:10:03.698Z,4472.00
2022-08-19T12:11:04.303Z,4472.00
2022-08-19T12:12:03.563Z,4476.00
2022-08-19T12:13:03.535Z,4488.00
2022-08-19T12:14:03.516Z,4500.00
2022-08-19T12:15:03.505Z,4524.00
2022-08-19T12:16:04.256Z,4548.00
2022-08-19T12:17:03.465Z,4484.00
2022-08-19T12:18:03.475Z,4428.00
2022-08-19T12:19:03.436Z,4060.00
2022-08-19T12:20:03.421Z,3520.00
2022-08-19T12:21:04.869Z,3492.00
2022-08-19T12:22:03.507Z,3468.00
2022-08-19T12:23:06.410Z,3880.00
2022-08-19T12:24:06.390Z,4236.00
2022-08-19T12:25:03.352Z,4304.00
2022-08-19T12:26:04.103Z,4308.00
2022-08-19T12:27:03.402Z,4304.00
2022-08-19T12:28:04.021Z,4040.00
2022-08-19T12:29:03.294Z,4112.00
2022-08-19T12:30:03.283Z,4188.00
2022-08-19T12:31:04.047Z,3964.00